createdAt,value
2022-11-14T05:03:09.838Z,9.50
2022-11-14T05:06:00.214Z,8.80
2022-11-14T05:08:46.303Z,10.90
2022-11-14T05:11:32.366Z,7.80
2022-11-14T05:14:19.312Z,11.80
2022-11-14T05:17:06.214Z,8.60
2022-11-14T05:19:52.981Z,9.70
2022-11-14T05:22:39.626Z,8.00
2022-11-14T05:25:27.402Z,9.70
2022-11-14T05:28:17.016Z,8.90
2022-11-14T05:31:18.945Z,10.90
2022-11-14T05:34:05.332Z,9.20
2022-11-14T05:36:51.987Z,9.10
2022-11-14T05:39:38.678Z,7.00
2022-11-14T05:42:25.688Z,8.50
2022-11-14T05:45:12.057Z,8.70
2022-11-14T05:47:58.949Z,9.20
2022-11-14T05:50:44.743Z,10.10
2022-11-14T05:53:32.235Z,10.80
2022-11-14T05:56:18.934Z,7.60
2022-11-14T05:59:05.685Z,10.50
2022-11-14T06:01:52.390Z,9.50
2022-11-14T06:04:38.883Z,11.50
2022-11-14T06:07:25.315Z,9.50
2022-11-14T06:10:12.229Z,12.50
2022-11-14T06:12:58.901Z,8.40
2022-11-14T06:15:45.849Z,9.60
2022-11-14T06:18:34.410Z,10.00
2022-11-14T06:21:23.369Z,11.00
2022-11-14T06:24:10.114Z,13.60
2022-11-14T06:26:56.304Z,13.50
2022-11-14T06:29:43.152Z,10.00
2022-11-14T06:32:29.997Z,12.20
2022-11-14T06:35:16.682Z,10.00
2022-11-14T06:38:03.551Z,9.60
2022-11-14T06:40:50.137Z,11.80
2022-11-14T06:43:37.996Z,12.90
2022-11-14T06:46:25.043Z,12.80
2022-11-14T06:49:12.079Z,11.00
2022-11-14T06:51:58.559Z,12.80
2022-11-14T06:54:45.258Z,11.00
2022-11-14T06:57:31.838Z,12.50
2022-11-14T07:00:17.846Z,11.30
2022-11-14T07:03:04.827Z,11.90
2022-11-14T07:05:51.328Z,11.20
2022-11-14T07:08:38.272Z,10.90
2022-11-14T07:11:28.746Z,10.60
2022-11-14T07:14:15.481Z,16.20
2022-11-14T07:17:01.700Z,12.30
2022-11-14T07:19:48.655Z,10.50
2022-11-14T07:22:34.664Z,13.80
2022-11-14T07:25:23.420Z,10.30
2022-11-14T07:28:09.892Z,15.60
2022-11-14T07:30:56.587Z,11.20
2022-11-14T07:33:44.172Z,12.80
2022-11-14T07:36:30.453Z,12.00
2022-11-14T07:39:16.971Z,11.60
2022-11-14T07:42:03.499Z,11.40
2022-11-14T07:44:49.795Z,11.40
2022-11-14T07:47:37.953Z,13.20
2022-11-14T07:50:28.452Z,9.10
2022-11-14T07:53:16.311Z,12.00
2022-11-14T07:56:05.930Z,8.70
2022-11-14T07:58:52.782Z,12.40
2022-11-14T08:01:39.932Z,8.50
2022-11-14T08:04:27.590Z,9.80
2022-11-14T08:07:13.955Z,6.90
2022-11-14T08:10:00.635Z,10.90
2022-11-14T08:12:56.223Z,6.60
2022-11-14T08:15:50.901Z,8.90
2022-11-14T08:18:40.717Z,9.20
2022-11-14T08:21:27.487Z,9.30
2022-11-14T08:24:14.434Z,5.40
2022-11-14T08:27:00.931Z,5.40
2022-11-14T08:29:47.020Z,4.70
2022-11-14T08:32:34.845Z,6.10
2022-11-14T08:35:21.896Z,6.50
2022-11-14T08:38:16.172Z,7.20
2022-11-14T08:41:08.155Z,10.10
2022-11-14T08:44:00.196Z,12.80
2022-11-14T08:46:52.023Z,13.10
2022-11-14T08:49:39.394Z,11.60
2022-11-14T08:52:55.543Z,25.50
2022-11-14T08:55:47.581Z,22.20
2022-11-14T08:58:34.155Z,25.00
2022-11-14T09:01:20.957Z,12.30
2022-11-14T09:04:26.402Z,11.00
2022-11-14T09:07:32.779Z,12.50
2022-11-14T09:10:18.942Z,9.40
2022-11-14T09:13:06.540Z,15.30
2022-11-14T09:15:52.632Z,6.00
2022-11-14T09:18:39.031Z,12.70
2022-11-14T09:21:25.675Z,4.30
2022-11-14T09:24:11.591Z,8.90
2022-11-14T09:26:57.898Z,6.00
2022-11-14T09:30:36.874Z,5.10
2022-11-14T09:34:16.909Z,14.40
2022-11-14T09:37:03.199Z,8.60
2022-11-14T09:39:50.957Z,9.70
2022-11-14T09:43:31.866Z,7.70
2022-11-14T09:46:40.509Z,7.00
2022-11-14T09:53:29.811Z,12.00
2022-11-14T09:56:25.844Z,8.60
2022-11-14T09:59:13.283Z,13.10
2022-11-14T10:02:20.435Z,15.60
2022-11-14T10:05:23.275Z,11.30
2022-11-14T10:08:20.648Z,10.30
2022-11-14T10:11:14.319Z,18.50
2022-11-14T10:14:38.274Z,13.80
2022-11-14T10:17:47.706Z,35.50
2022-11-14T10:21:11.480Z,25.10
2022-11-14T10:24:10.184Z,13.20
2022-11-14T10:27:06.655Z,12.60
2022-11-14T10:30:02.187Z,13.60
2022-11-14T10:33:04.316Z,16.70
2022-11-14T10:36:02.255Z,15.90
2022-11-14T10:39:04.706Z,19.40
2022-11-14T10:42:01.037Z,11.30
2022-11-14T10:45:11.559Z,26.70
2022-11-14T10:48:09.874Z,25.60
2022-11-14T10:51:00.425Z,31.40
2022-11-14T10:53:50.695Z,25.50
2022-11-14T10:56:52.011Z,22.10
2022-11-14T10:59:39.243Z,15.00
2022-11-14T11:02:25.734Z,27.40
2022-11-14T11:05:27.694Z,24.60
2022-11-14T11:08:44.192Z,23.40
2022-11-14T11:11:32.362Z,13.70
2022-11-14T11:14:20.428Z,12.20
2022-11-14T11:17:18.055Z,10.50
2022-11-14T11:21:12.863Z,11.00
2022-11-14T11:24:05.310Z,11.80
2022-11-14T11:27:21.509Z,9.60
2022-11-14T11:30:39.181Z,11.40
2022-11-14T11:33:31.685Z,9.70
2022-11-14T11:36:23.840Z,14.20
2022-11-14T11:39:24.595Z,12.30
2022-11-14T11:42:21.729Z,13.20
2022-11-14T11:45:18.162Z,13.30
2022-11-14T11:48:09.405Z,13.70
2022-11-14T11:50:57.437Z,11.10
2022-11-14T11:53:51.699Z,10.80
2022-11-14T11:56:39.383Z,11.90
2022-11-14T11:59:56.668Z,11.80
2022-11-14T12:02:50.216Z,14.20
2022-11-14T12:05:53.779Z,12.90
2022-11-14T12:08:40.516Z,15.60
2022-11-14T12:11:32.046Z,13.00
2022-11-14T12:14:55.281Z,15.00
2022-11-14T12:17:55.443Z,15.00
2022-11-14T12:21:00.381Z,14.60
2022-11-14T12:24:13.636Z,13.80
2022-11-14T12:27:24.808Z,12.80
2022-11-14T12:30:46.151Z,13.30
2022-11-14T12:33:39.917Z,20.60
2022-11-14T12:36:33.836Z,18.00
2022-11-14T12:39:29.894Z,27.70
2022-11-14T12:42:21.775Z,19.60
2022-11-14T12:45:36.349Z,30.50
2022-11-14T12:48:32.463Z,19.10
2022-11-14T12:51:28.050Z,19.50
2022-11-14T12:54:47.215Z,25.50
2022-11-14T12:57:48.484Z,14.70
2022-11-14T13:01:28.775Z,14.80
2022-11-14T13:13:13.915Z,14.50
2022-11-14T13:16:59.829Z,16.60
2022-11-14T13:28:11.235Z,15.70
2022-11-14T13:31:20.122Z,13.30
2022-11-14T13:34:42.728Z,16.00
2022-11-14T13:38:18.132Z,16.10
2022-11-14T13:45:25.662Z,20.40
2022-11-14T13:48:27.164Z,20.00
2022-11-14T13:51:41.602Z,17.50
2022-11-14T13:54:25.000Z,17.40
2022-11-14T13:58:09.953Z,14.20
2022-11-14T14:01:48.945Z,15.70
2022-11-14T14:04:59.787Z,20.50
2022-11-14T14:08:20.051Z,21.90
2022-11-14T14:11:23.892Z,22.40
2022-11-14T14:17:48.298Z,17.10
2022-11-14T14:21:39.566Z,18.70
2022-11-14T14:25:01.745Z,19.40
2022-11-14T14:28:06.297Z,19.90
2022-11-14T14:31:08.444Z,16.80
2022-11-14T14:33:55.186Z,17.20
2022-11-14T14:36:51.275Z,16.60
2022-11-14T14:39:37.871Z,15.80
2022-11-14T14:42:29.453Z,16.30
2022-11-14T14:48:33.009Z,15.60
2022-11-14T14:51:31.405Z,16.50
2022-11-14T14:54:24.549Z,19.60
2022-11-14T14:57:21.296Z,18.20
2022-11-14T15:00:30.543Z,18.30
2022-11-14T15:03:19.452Z,21.40
2022-11-14T15:06:30.606Z,25.30
2022-11-14T15:09:29.935Z,24.60
2022-11-14T15:12:16.984Z,22.60
2022-11-14T15:15:04.477Z,19.80
2022-11-14T15:17:51.296Z,23.40
2022-11-14T15:20:37.811Z,24.30
2022-11-14T15:23:24.027Z,25.00
2022-11-14T15:26:19.121Z,29.80
2022-11-14T15:29:13.318Z,27.50
2022-11-14T15:32:02.171Z,25.10
2022-11-14T15:35:08.646Z,23.10
2022-11-14T15:38:43.021Z,26.80
2022-11-14T15:41:28.788Z,33.20
2022-11-14T15:44:32.518Z,31.40
2022-11-14T15:47:21.322Z,34.50
2022-11-14T15:50:13.558Z,32.60
2022-11-14T15:53:06.266Z,31.30
2022-11-14T15:55:52.344Z,32.90
2022-11-14T15:58:38.610Z,32.70
2022-11-14T16:01:28.734Z,32.20
2022-11-14T16:04:20.559Z,39.70
2022-11-14T16:07:06.716Z,36.60
2022-11-14T16:09:52.995Z,28.80
2022-11-14T16:12:39.351Z,23.70
2022-11-14T16:15:25.515Z,27.00
2022-11-14T16:18:12.126Z,24.90
2022-11-14T16:20:59.990Z,22.80
2022-11-14T16:23:45.982Z,26.30
2022-11-14T16:26:33.114Z,30.00
2022-11-14T16:29:19.988Z,32.00
2022-11-14T16:32:06.439Z,24.50
2022-11-14T16:34:53.295Z,31.40
2022-11-14T16:37:39.952Z,36.90
2022-11-14T16:40:28.853Z,28.50
2022-11-14T16:43:15.256Z,22.00
2022-11-14T16:46:06.257Z,36.20
2022-11-14T16:48:52.872Z,45.20
2022-11-14T16:51:48.245Z,33.80
2022-11-14T16:54:35.943Z,32.10
2022-11-14T16:57:22.085Z,32.30
2022-11-14T17:00:13.104Z,26.60
2022-11-14T17:02:59.403Z,24.60
2022-11-14T17:05:48.931Z,25.60
2022-11-14T17:08:35.582Z,27.30
2022-11-14T17:11:23.470Z,26.90
2022-11-14T17:14:09.991Z,27.90
2022-11-14T17:16:56.166Z,29.10
2022-11-14T17:19:46.320Z,28.40
2022-11-14T17:22:32.838Z,26.50
2022-11-14T17:25:19.747Z,25.50
2022-11-14T17:28:05.892Z,27.00
2022-11-14T17:30:52.521Z,33.20
2022-11-14T17:33:38.907Z,24.30
2022-11-14T17:36:27.943Z,25.10
2022-11-14T17:39:14.200Z,35.50
2022-11-14T17:42:00.336Z,32.00
2022-11-14T17:44:46.287Z,34.20
2022-11-14T17:47:32.006Z,32.70
2022-11-14T17:50:18.419Z,40.40
2022-11-14T17:53:04.560Z,35.40
2022-11-14T17:55:57.680Z,34.80
2022-11-14T17:58:44.999Z,37.00
2022-11-14T18:01:32.001Z,29.20
2022-11-14T18:04:18.057Z,34.10
2022-11-14T18:07:04.127Z,29.90
2022-11-14T18:09:50.955Z,34.50
2022-11-14T18:12:37.253Z,34.70
2022-11-14T18:15:27.804Z,29.70
2022-11-14T18:18:14.267Z,30.90
2022-11-14T18:21:20.135Z,35.10
2022-11-14T18:24:06.851Z,45.20
2022-11-14T18:26:53.565Z,39.10
2022-11-14T18:29:41.138Z,42.50
2022-11-14T18:32:27.215Z,51.60
2022-11-14T18:35:12.939Z,55.00
2022-11-14T18:37:58.989Z,46.20
2022-11-14T18:40:45.101Z,47.20
2022-11-14T18:43:32.980Z,44.70
2022-11-14T18:46:24.267Z,48.90
2022-11-14T18:49:11.566Z,55.90
2022-11-14T18:51:57.460Z,50.10
2022-11-14T18:54:43.735Z,46.40
2022-11-14T18:57:30.132Z,44.40
2022-11-14T19:00:17.836Z,43.60
2022-11-14T19:03:06.452Z,47.50
2022-11-14T19:05:53.108Z,45.50
2022-11-14T19:08:40.121Z,56.60
2022-11-14T19:11:45.598Z,54.80
2022-11-14T19:14:32.737Z,46.50
2022-11-14T19:17:24.583Z,48.00
2022-11-14T19:20:14.529Z,49.00
2022-11-14T19:23:02.602Z,68.80
2022-11-14T19:25:48.903Z,53.30
2022-11-14T19:28:35.375Z,63.80
2022-11-14T19:31:22.980Z,61.00
2022-11-14T19:34:10.609Z,54.30
2022-11-14T19:37:01.224Z,59.80
2022-11-14T19:39:47.739Z,52.90
2022-11-14T19:42:34.068Z,51.60
2022-11-14T19:45:20.069Z,48.60
2022-11-14T19:48:06.695Z,50.60
2022-11-14T19:51:26.404Z,47.10
2022-11-14T19:54:12.503Z,49.20
2022-11-14T19:56:58.571Z,51.80
2022-11-14T19:59:44.889Z,49.30
2022-11-14T20:02:30.801Z,48.70
2022-11-14T20:05:18.976Z,51.70
2022-11-14T20:08:05.112Z,44.60
2022-11-14T20:11:07.122Z,44.60
2022-11-14T20:13:53.890Z,44.30
2022-11-14T20:16:40.362Z,57.00
2022-11-14T20:19:27.988Z,48.80
2022-11-14T20:22:14.188Z,50.00
2022-11-14T20:25:00.496Z,43.00
2022-11-14T20:27:46.491Z,47.60
2022-11-14T20:30:32.742Z,42.70
2022-11-14T20:33:18.700Z,44.70
2022-11-14T20:36:07.693Z,39.90
2022-11-14T20:38:54.432Z,42.70
2022-11-14T20:41:41.505Z,45.50
2022-11-14T20:44:27.878Z,45.80
2022-11-14T20:47:14.001Z,51.30
2022-11-14T20:49:59.908Z,48.00
2022-11-14T20:52:48.127Z,43.50
2022-11-14T20:55:34.314Z,44.80
2022-11-14T20:58:21.350Z,43.10
2022-11-14T21:01:09.992Z,49.70
2022-11-14T21:04:00.390Z,49.80
2022-11-14T21:06:46.630Z,43.90
2022-11-14T21:09:32.879Z,48.30
2022-11-14T21:12:18.883Z,49.20
2022-11-14T21:15:07.787Z,44.50
2022-11-14T21:17:53.585Z,39.90
2022-11-14T21:20:39.354Z,52.70
2022-11-14T21:23:25.738Z,74.20
2022-11-14T21:26:20.239Z,53.80
2022-11-14T21:29:09.462Z,63.80
2022-11-14T21:31:56.247Z,47.40
2022-11-14T21:34:42.331Z,66.60
2022-11-14T21:37:28.855Z,94.10
2022-11-14T21:40:15.397Z,86.70
2022-11-14T21:43:02.083Z,46.20
2022-11-14T21:45:55.711Z,46.70
2022-11-14T21:48:42.035Z,42.80
2022-11-14T21:51:29.545Z,44.00
2022-11-14T21:54:15.672Z,39.60
2022-11-14T21:57:05.616Z,38.90
2022-11-14T21:59:55.542Z,46.80
2022-11-14T22:03:02.599Z,51.90
2022-11-14T22:05:48.646Z,44.10
2022-11-14T22:08:35.451Z,40.00
2022-11-14T22:11:23.139Z,36.90
2022-11-14T22:14:09.610Z,34.70
2022-11-14T22:16:56.223Z,41.30
2022-11-14T22:19:42.078Z,38.40
2022-11-14T22:22:29.206Z,38.60
2022-11-14T22:25:16.148Z,34.40
2022-11-14T22:28:02.682Z,37.60
2022-11-14T22:30:49.825Z,37.60
2022-11-14T22:33:41.477Z,34.10
2022-11-14T22:39:20.385Z,33.50
2022-11-14T22:42:06.674Z,37.50
2022-11-14T22:44:52.938Z,39.00
2022-11-14T22:47:39.168Z,32.00
2022-11-14T22:50:25.246Z,38.20
2022-11-14T22:53:11.398Z,36.60
2022-11-14T22:55:59.227Z,37.50
2022-11-14T22:58:46.757Z,38.10
2022-11-14T23:01:34.406Z,40.70
2022-11-14T23:04:20.414Z,40.70
2022-11-14T23:07:07.120Z,42.30
2022-11-14T23:09:53.155Z,39.70
2022-11-14T23:12:39.080Z,52.70
2022-11-14T23:15:25.546Z,39.60
2022-11-14T23:18:12.347Z,39.90
2022-11-14T23:21:04.966Z,33.40
2022-11-14T23:23:56.382Z,41.50
2022-11-14T23:26:42.615Z,41.50
2022-11-14T23:29:29.181Z,38.20
2022-11-14T23:32:16.004Z,37.20
2022-11-14T23:35:02.949Z,40.10
2022-11-14T23:37:49.543Z,36.30
2022-11-14T23:40:35.796Z,48.40
2022-11-14T23:43:22.758Z,40.90
2022-11-14T23:46:09.206Z,37.90
2022-11-14T23:48:56.190Z,36.30
2022-11-14T23:51:42.730Z,36.10
2022-11-14T23:54:29.225Z,39.70
2022-11-14T23:57:15.742Z,36.60
